Time;durP1;ratioP1;P1;durP2;ratioP2;P2;SDS_P1;SDS_P2;PMS_P1;PMS_P2;Temp;Humidity;BMP_temperature;BMP_pressure;BME280_temperature;BME280_humidity;BME280_pressure;Samples;Min_cycle;Max_cycle;Signal;HPM_P1;HPM_P2
2023/08/10 00:00:26;;;;;;;7.20;1.88;;;14.30;99.90;;;;;;5017257;28;20117;-78
2023/08/10 00:02:53;;;;;;;2.67;1.33;;;14.30;99.90;;;;;;5004314;28;20100;-78
2023/08/10 00:05:19;;;;;;;1.63;1.40;;;14.20;99.90;;;;;;5018908;28;20033;-77
2023/08/10 00:07:45;;;;;;;3.63;1.67;;;14.30;99.90;;;;;;5017671;28;20049;-78
2023/08/10 00:10:11;;;;;;;4.20;2.30;;;14.50;99.90;;;;;;5001581;28;20067;-77
2023/08/10 00:12:37;;;;;;;3.38;1.90;;;14.40;99.90;;;;;;5014964;28;20033;-78
2023/08/10 00:15:03;;;;;;;1.70;1.60;;;14.20;99.90;;;;;;4988798;28;20038;-77
2023/08/10 00:17:29;;;;;;;10.68;1.90;;;14.20;99.90;;;;;;5018132;28;20072;-76
2023/08/10 00:19:55;;;;;;;3.95;1.23;;;14.30;99.90;;;;;;5019342;28;20061;-77
2023/08/10 00:22:20;;;;;;;3.60;1.80;;;14.50;99.90;;;;;;5004084;28;20070;-78
2023/08/10 00:24:47;;;;;;;2.40;1.52;;;14.60;99.90;;;;;;4989569;28;20033;-77
2023/08/10 00:27:12;;;;;;;2.85;1.48;;;14.50;99.90;;;;;;4998392;28;20120;-77
2023/08/10 00:29:38;;;;;;;5.40;2.25;;;14.50;99.90;;;;;;5004263;28;20136;-76
2023/08/10 00:32:04;;;;;;;5.80;1.50;;;14.30;99.90;;;;;;5018190;28;20025;-78
2023/08/10 00:34:29;;;;;;;1.92;1.60;;;14.60;99.90;;;;;;5015367;28;20037;-77
2023/08/10 00:36:55;;;;;;;3.10;2.10;;;14.40;99.90;;;;;;4984738;28;20030;-77
2023/08/10 00:39:21;;;;;;;6.93;2.28;;;14.30;99.90;;;;;;5016244;28;20036;-78
2023/08/10 00:41:46;;;;;;;2.80;1.60;;;14.40;99.90;;;;;;5018851;28;20393;-78
2023/08/10 00:44:13;;;;;;;4.95;2.33;;;14.40;99.90;;;;;;5001536;28;20034;-78
2023/08/10 00:46:39;;;;;;;6.65;2.35;;;14.30;99.90;;;;;;5015900;28;20033;-78
2023/08/10 00:49:04;;;;;;;4.93;1.90;;;14.30;99.90;;;;;;5015296;28;20036;-77
2023/08/10 00:51:30;;;;;;;7.78;1.80;;;14.20;99.90;;;;;;5005101;28;20037;-76
2023/08/10 00:53:55;;;;;;;4.10;1.52;;;14.30;99.90;;;;;;5017300;28;20038;-77
2023/08/10 00:56:21;;;;;;;5.30;1.98;;;14.30;99.90;;;;;;5002713;28;20692;-78
2023/08/10 00:58:47;;;;;;;5.25;2.35;;;14.30;99.90;;;;;;4985492;28;20038;-78
2023/08/10 01:01:13;;;;;;;6.15;2.13;;;14.20;99.90;;;;;;5015371;28;20401;-77
2023/08/10 01:03:38;;;;;;;3.95;1.65;;;14.20;99.90;;;;;;5014197;28;20041;-76
2023/08/10 01:06:21;;;;;;;1.65;1.40;;;14.10;99.90;;;;;;4998872;28;20045;-77
2023/08/10 01:08:47;;;;;;;2.90;1.20;;;14.10;99.90;;;;;;4999050;28;20518;-77
2023/08/10 01:11:24;;;;;;;6.32;1.85;;;14.10;99.90;;;;;;5015296;28;20042;-77
2023/08/10 01:13:57;;;;;;;3.22;2.08;;;14.10;99.90;;;;;;5001794;28;20053;-78
2023/08/10 01:16:22;;;;;;;5.70;1.73;;;14.20;99.90;;;;;;4999357;28;20037;-78
2023/08/10 01:18:48;;;;;;;3.50;1.58;;;14.10;99.90;;;;;;5018853;28;20087;-78
2023/08/10 01:21:29;;;;;;;6.00;2.30;;;14.30;99.90;;;;;;5014445;28;20038;-78
2023/08/10 01:23:55;;;;;;;7.68;2.00;;;14.10;99.90;;;;;;5000822;28;20461;-77
2023/08/10 01:26:21;;;;;;;4.13;1.50;;;14.00;99.90;;;;;;5000208;28;20034;-77
2023/08/10 01:28:46;;;;;;;2.95;1.50;;;14.00;99.90;;;;;;4997547;28;20085;-78
2023/08/10 01:31:12;;;;;;;3.05;1.42;;;14.10;99.90;;;;;;4988544;28;20109;-77
2023/08/10 01:33:38;;;;;;;4.63;1.80;;;14.00;99.90;;;;;;5016480;28;20497;-79
2023/08/10 01:36:04;;;;;;;3.22;1.85;;;14.10;99.90;;;;;;5015272;28;20041;-78
2023/08/10 01:38:29;;;;;;;5.05;2.30;;;14.20;99.90;;;;;;5016115;28;20092;-78
2023/08/10 01:40:55;;;;;;;7.20;2.58;;;14.10;99.90;;;;;;5002863;28;20026;-77
2023/08/10 01:43:21;;;;;;;4.90;1.70;;;14.00;99.90;;;;;;5005259;28;20033;-78
2023/08/10 01:45:49;;;;;;;2.15;1.73;;;14.00;99.90;;;;;;5000457;28;20045;-77
2023/08/10 01:48:25;;;;;;;3.00;1.85;;;13.90;99.90;;;;;;5001230;28;20411;-77
2023/08/10 01:50:50;;;;;;;2.20;1.50;;;13.90;99.90;;;;;;4985666;28;20021;-77
2023/08/10 01:53:17;;;;;;;4.72;2.35;;;13.90;99.90;;;;;;5001261;28;20500;-77
2023/08/10 01:55:42;;;;;;;7.53;2.25;;;13.90;99.90;;;;;;5001370;28;20112;-77
2023/08/10 01:58:08;;;;;;;4.38;1.90;;;13.80;99.90;;;;;;5014007;28;20659;-77
2023/08/10 02:00:37;;;;;;;4.85;1.90;;;13.90;99.90;;;;;;5014062;28;20735;-77
2023/08/10 02:03:06;;;;;;;4.07;1.90;;;13.90;99.90;;;;;;5016313;28;20084;-77
2023/08/10 02:05:32;;;;;;;2.45;1.77;;;13.90;99.90;;;;;;5000681;28;20456;-77
2023/08/10 02:07:57;;;;;;;1.77;1.58;;;13.80;99.90;;;;;;5016835;28;20145;-79
2023/08/10 02:10:23;;;;;;;6.00;1.65;;;13.70;99.90;;;;;;5013447;28;20518;-76
2023/08/10 02:12:49;;;;;;;5.63;1.63;;;13.70;99.90;;;;;;5017195;28;20037;-77
2023/08/10 02:15:15;;;;;;;3.78;1.95;;;13.70;99.90;;;;;;5002555;28;20033;-78
2023/08/10 02:17:41;;;;;;;2.25;1.60;;;13.70;99.90;;;;;;5017141;28;20428;-77
2023/08/10 02:20:13;;;;;;;3.67;1.70;;;13.60;99.90;;;;;;5000600;28;20048;-78
2023/08/10 02:22:46;;;;;;;4.80;2.40;;;13.60;99.90;;;;;;5014991;28;20072;-77
2023/08/10 02:25:11;;;;;;;3.70;2.03;;;13.60;99.90;;;;;;5015320;28;20044;-77
2023/08/10 02:27:38;;;;;;;2.38;1.52;;;13.50;99.90;;;;;;5016674;28;20038;-78
2023/08/10 02:30:04;;;;;;;3.20;1.65;;;13.50;99.90;;;;;;4999580;28;20092;-78
2023/08/10 02:32:29;;;;;;;3.75;2.00;;;13.50;99.90;;;;;;5015089;28;20041;-77
2023/08/10 02:34:55;;;;;;;4.50;1.90;;;13.50;99.90;;;;;;4994726;28;20033;-78
2023/08/10 02:37:20;;;;;;;3.05;1.58;;;13.50;99.90;;;;;;4998238;28;20109;-78
2023/08/10 02:39:46;;;;;;;4.22;1.63;;;13.50;99.90;;;;;;4998666;28;20052;-77
2023/08/10 02:42:11;;;;;;;6.30;2.13;;;13.50;99.90;;;;;;5002154;28;20109;-78
2023/08/10 02:44:37;;;;;;;5.65;2.38;;;13.60;99.90;;;;;;5015562;28;20425;-78
2023/08/10 02:47:03;;;;;;;2.95;1.40;;;13.70;99.90;;;;;;5018446;28;21015;-78
2023/08/10 02:49:29;;;;;;;2.30;1.60;;;13.60;99.90;;;;;;5014101;28;20042;-77
2023/08/10 02:51:54;;;;;;;6.22;2.10;;;13.60;99.90;;;;;;5014694;28;20185;-77
2023/08/10 02:54:20;;;;;;;2.95;2.20;;;13.60;99.90;;;;;;5012830;28;20065;-77
2023/08/10 02:56:45;;;;;;;4.28;2.35;;;13.60;99.90;;;;;;4998105;28;20034;-77
2023/08/10 02:59:11;;;;;;;7.70;2.17;;;13.70;99.90;;;;;;5014568;28;20493;-77
2023/08/10 03:01:37;;;;;;;2.83;2.10;;;13.60;99.90;;;;;;5012597;28;20045;-78
2023/08/10 03:04:02;;;;;;;9.27;2.15;;;13.60;99.90;;;;;;5015365;28;20038;-77
2023/08/10 03:06:28;;;;;;;4.10;1.70;;;13.60;99.90;;;;;;5011767;28;20497;-78
2023/08/10 03:08:54;;;;;;;6.03;2.28;;;13.60;99.90;;;;;;5013196;28;20029;-77
2023/08/10 03:11:19;;;;;;;3.55;1.90;;;13.60;99.90;;;;;;4998918;28;20508;-78
2023/08/10 03:13:45;;;;;;;4.03;1.90;;;13.70;99.90;;;;;;4996303;28;20394;-77
2023/08/10 03:16:10;;;;;;;9.10;2.85;;;13.70;99.90;;;;;;4988148;28;20030;-78
2023/08/10 03:18:36;;;;;;;3.75;2.20;;;13.60;99.90;;;;;;5004467;28;20862;-76
2023/08/10 03:21:02;;;;;;;5.72;2.13;;;13.60;99.90;;;;;;5015116;28;20025;-78
2023/08/10 03:23:27;;;;;;;3.35;2.40;;;13.60;99.90;;;;;;5013953;28;20064;-76
2023/08/10 03:25:53;;;;;;;3.67;2.03;;;13.60;99.90;;;;;;5018428;28;20034;-77
2023/08/10 03:28:18;;;;;;;5.53;2.00;;;13.60;99.90;;;;;;5019604;28;20038;-77
2023/08/10 03:30:44;;;;;;;5.45;2.55;;;13.60;99.90;;;;;;5016495;28;20025;-78
2023/08/10 03:33:09;;;;;;;2.08;1.30;;;13.60;99.90;;;;;;5019888;28;20259;-77
2023/08/10 03:35:35;;;;;;;5.70;2.70;;;13.60;99.90;;;;;;5001571;28;20021;-77
2023/08/10 03:38:01;;;;;;;2.15;1.30;;;13.60;99.90;;;;;;5013955;28;20029;-77
2023/08/10 03:40:26;;;;;;;3.17;1.95;;;13.60;99.90;;;;;;5015710;28;20505;-77
2023/08/10 03:42:52;;;;;;;2.25;1.90;;;13.60;99.90;;;;;;5018840;28;20040;-78
2023/08/10 03:45:17;;;;;;;3.08;2.00;;;13.60;99.90;;;;;;5019607;28;20489;-77
2023/08/10 03:47:43;;;;;;;8.30;2.78;;;13.70;99.90;;;;;;5001782;28;20034;-78
2023/08/10 03:50:10;;;;;;;2.58;1.90;;;13.60;99.90;;;;;;4992590;28;20040;-76
2023/08/10 03:52:35;;;;;;;4.93;2.22;;;13.60;99.90;;;;;;5019008;28;20033;-77
2023/08/10 03:55:01;;;;;;;2.65;1.77;;;13.70;99.90;;;;;;5015484;28;20056;-77
2023/08/10 03:57:27;;;;;;;3.30;2.33;;;13.60;99.90;;;;;;4999500;28;20041;-78
2023/08/10 03:59:53;;;;;;;7.10;2.00;;;13.60;99.90;;;;;;4995614;28;20041;-77
2023/08/10 04:02:18;;;;;;;6.85;1.55;;;13.60;99.90;;;;;;5014110;28;20029;-78
2023/08/10 04:04:44;;;;;;;4.43;2.13;;;13.50;99.90;;;;;;5005514;28;20494;-77
2023/08/10 04:07:09;;;;;;;5.80;2.10;;;13.50;99.90;;;;;;4999365;28;20568;-77
2023/08/10 04:09:35;;;;;;;2.55;1.95;;;13.60;99.90;;;;;;4999459;28;20073;-78
2023/08/10 04:12:00;;;;;;;6.10;1.92;;;13.40;99.90;;;;;;4999357;28;20468;-78
2023/08/10 04:14:26;;;;;;;4.00;2.50;;;13.30;99.90;;;;;;5020827;28;20393;-77
2023/08/10 04:16:52;;;;;;;2.40;1.75;;;13.40;99.90;;;;;;5015013;28;20670;-78
2023/08/10 04:19:17;;;;;;;5.50;2.00;;;13.30;99.90;;;;;;5015769;28;20034;-78
2023/08/10 04:21:44;;;;;;;3.17;1.83;;;13.20;99.90;;;;;;5015744;28;20121;-78
2023/08/10 04:24:10;;;;;;;4.07;1.63;;;13.20;99.90;;;;;;5019773;28;20041;-77
2023/08/10 04:26:36;;;;;;;3.95;2.20;;;13.10;99.90;;;;;;5016973;28;20045;-77
2023/08/10 04:29:03;;;;;;;5.10;2.65;;;13.10;99.90;;;;;;5014754;28;20079;-78
2023/08/10 04:31:28;;;;;;;2.83;1.90;;;13.00;99.90;;;;;;5015313;28;20382;-77
2023/08/10 04:33:54;;;;;;;5.22;2.53;;;13.00;99.90;;;;;;5017886;28;20184;-78
2023/08/10 04:36:19;;;;;;;5.95;2.58;;;13.00;99.90;;;;;;5013798;28;20057;-79
2023/08/10 04:38:45;;;;;;;3.00;2.08;;;12.90;99.90;;;;;;4990174;28;20044;-77
2023/08/10 04:41:10;;;;;;;6.63;2.80;;;12.90;99.90;;;;;;5018854;28;20025;-78
2023/08/10 04:43:36;;;;;;;7.65;2.65;;;12.80;99.90;;;;;;5005648;28;20037;-78
2023/08/10 04:46:02;;;;;;;6.32;3.13;;;12.70;99.90;;;;;;5015491;28;20037;-78
2023/08/10 04:48:27;;;;;;;6.05;2.75;;;12.80;99.90;;;;;;5015688;28;20182;-77
2023/08/10 04:50:53;;;;;;;2.65;2.03;;;12.80;99.90;;;;;;4984636;28;20798;-78
2023/08/10 04:53:18;;;;;;;5.47;2.72;;;12.80;99.90;;;;;;5018054;28;20099;-77
2023/08/10 04:55:44;;;;;;;8.25;2.85;;;12.90;99.90;;;;;;5010401;28;20049;-77
2023/08/10 04:58:10;;;;;;;10.25;2.40;;;13.00;99.90;;;;;;5001450;28;20026;-78
2023/08/10 05:00:35;;;;;;;4.18;2.72;;;13.00;99.90;;;;;;5000290;28;20037;-76
2023/08/10 05:03:01;;;;;;;7.00;2.22;;;13.00;99.90;;;;;;5002999;28;20034;-76
2023/08/10 05:05:27;;;;;;;3.03;1.67;;;13.10;99.90;;;;;;5017872;28;20076;-77
2023/08/10 05:07:52;;;;;;;6.68;1.85;;;13.10;99.90;;;;;;5018216;28;20116;-76
2023/08/10 05:10:18;;;;;;;5.43;2.78;;;13.10;99.90;;;;;;5014483;28;20065;-76
2023/08/10 05:12:43;;;;;;;3.65;2.53;;;13.00;99.90;;;;;;5002127;28;20038;-77
2023/08/10 05:15:10;;;;;;;4.65;1.80;;;12.90;99.90;;;;;;5013512;28;20068;-78
2023/08/10 05:17:37;;;;;;;6.72;2.97;;;12.90;99.90;;;;;;5016346;28;20461;-76
2023/08/10 05:20:10;;;;;;;3.67;3.10;;;12.90;99.90;;;;;;5007796;28;20501;-77
2023/08/10 05:22:37;;;;;;;12.07;3.38;;;13.00;99.90;;;;;;5019714;28;24949;-77
2023/08/10 05:25:05;;;;;;;4.65;2.55;;;13.10;99.90;;;;;;5001366;28;20034;-76
2023/08/10 05:27:31;;;;;;;9.90;3.25;;;13.20;99.90;;;;;;5016952;28;20029;-76
2023/08/10 05:29:57;;;;;;;7.15;3.08;;;13.20;99.90;;;;;;5016213;28;20060;-76
2023/08/10 05:32:22;;;;;;;10.82;3.75;;;13.40;99.90;;;;;;4990858;28;20390;-76
2023/08/10 05:34:48;;;;;;;6.82;3.72;;;13.50;99.90;;;;;;5003848;28;20041;-76
2023/08/10 05:37:14;;;;;;;8.52;3.88;;;13.60;99.90;;;;;;5017387;28;20068;-77
2023/08/10 05:39:39;;;;;;;3.85;2.50;;;13.80;99.90;;;;;;5017356;28;20516;-76
2023/08/10 05:42:05;;;;;;;6.57;2.50;;;13.90;99.90;;;;;;5018295;28;20513;-76
2023/08/10 05:44:31;;;;;;;5.80;3.28;;;14.10;99.90;;;;;;4997408;28;20096;-76
2023/08/10 05:46:56;;;;;;;9.02;2.72;;;14.30;99.90;;;;;;4999463;28;20461;-77
2023/08/10 05:49:22;;;;;;;4.68;2.45;;;14.50;99.90;;;;;;5015258;28;20076;-76
2023/08/10 05:51:48;;;;;;;7.70;2.75;;;14.60;99.90;;;;;;5014520;28;20067;-77
2023/08/10 05:54:14;;;;;;;10.75;2.33;;;14.70;99.90;;;;;;5018188;28;20471;-77
2023/08/10 05:56:40;;;;;;;6.13;2.85;;;14.90;99.90;;;;;;5018138;28;20053;-78
2023/08/10 05:59:05;;;;;;;4.13;2.45;;;15.00;99.90;;;;;;5003809;28;20437;-76
2023/08/10 06:01:31;;;;;;;5.38;2.30;;;15.20;99.90;;;;;;5002163;28;20776;-77
2023/08/10 06:03:56;;;;;;;3.33;2.00;;;15.30;99.90;;;;;;5004122;28;20413;-77
2023/08/10 06:06:22;;;;;;;6.47;3.00;;;15.50;99.90;;;;;;5019821;28;20385;-77
2023/08/10 06:08:48;;;;;;;7.80;3.17;;;15.60;99.90;;;;;;5014864;28;20042;-77
2023/08/10 06:11:14;;;;;;;5.78;3.63;;;15.80;99.90;;;;;;5011992;28;20040;-78
2023/08/10 06:13:41;;;;;;;5.75;2.92;;;16.00;99.90;;;;;;4998414;28;20029;-77
2023/08/10 06:16:07;;;;;;;2.88;1.40;;;16.30;99.90;;;;;;5012342;28;20041;-78
2023/08/10 06:18:34;;;;;;;3.15;1.30;;;16.30;99.90;;;;;;5016148;28;20048;-77
2023/08/10 06:21:01;;;;;;;6.95;2.83;;;16.30;99.90;;;;;;5017758;28;20523;-77
2023/08/10 06:23:28;;;;;;;3.13;2.00;;;16.50;99.90;;;;;;5015003;28;20576;-77
2023/08/10 06:25:54;;;;;;;4.35;3.00;;;16.70;99.90;;;;;;5001514;28;20437;-77
2023/08/10 06:28:20;;;;;;;6.03;2.13;;;16.90;99.90;;;;;;5015937;28;20144;-77
2023/08/10 06:30:46;;;;;;;6.20;2.17;;;17.10;99.90;;;;;;4993768;28;20036;-76
2023/08/10 06:33:11;;;;;;;5.45;2.95;;;17.30;99.90;;;;;;5011972;28;20033;-76
2023/08/10 06:35:41;;;;;;;5.93;1.92;;;17.50;99.90;;;;;;4993863;28;20042;-77
2023/08/10 06:38:07;;;;;;;6.80;2.53;;;17.70;99.90;;;;;;5014667;28;20029;-76
2023/08/10 06:40:33;;;;;;;5.72;3.10;;;17.70;99.90;;;;;;5015025;28;20065;-77
2023/08/10 06:42:59;;;;;;;4.25;2.22;;;17.70;99.90;;;;;;5000749;28;20465;-77
2023/08/10 06:45:24;;;;;;;7.55;2.83;;;17.80;99.90;;;;;;4999159;28;20223;-76
2023/08/10 06:47:50;;;;;;;11.23;3.03;;;18.00;99.90;;;;;;5013810;28;20080;-76
2023/08/10 06:50:16;;;;;;;7.70;2.35;;;18.10;99.90;;;;;;5011816;28;20581;-76
2023/08/10 06:52:41;;;;;;;4.53;1.60;;;18.30;99.90;;;;;;4995086;28;20056;-76
2023/08/10 06:55:07;;;;;;;6.68;1.98;;;18.40;99.90;;;;;;4997485;28;20446;-77
2023/08/10 06:57:34;;;;;;;8.63;2.00;;;18.40;99.90;;;;;;4998118;28;20042;-76
2023/08/10 07:00:06;;;;;;;5.72;2.05;;;18.50;99.90;;;;;;5012715;28;20045;-77
2023/08/10 07:02:32;;;;;;;7.30;2.13;;;18.80;99.90;;;;;;5018105;28;20075;-76
2023/08/10 07:04:58;;;;;;;5.53;1.98;;;19.20;99.90;;;;;;5016489;28;20029;-76
2023/08/10 07:07:24;;;;;;;4.88;1.60;;;19.40;99.90;;;;;;4994792;28;20064;-79
2023/08/10 07:09:49;;;;;;;7.82;2.10;;;19.70;99.90;;;;;;4995892;28;20096;-76
2023/08/10 07:12:15;;;;;;;8.15;2.38;;;19.80;99.90;;;;;;5016916;28;20034;-76
2023/08/10 07:14:40;;;;;;;7.95;1.92;;;20.00;99.90;;;;;;5018086;28;20034;-77
2023/08/10 07:17:06;;;;;;;3.95;1.63;;;20.20;99.90;;;;;;4990866;28;20061;-77
2023/08/10 07:19:32;;;;;;;3.28;2.15;;;20.30;99.90;;;;;;5002736;28;20044;-76
2023/08/10 07:21:57;;;;;;;3.28;2.75;;;20.60;99.90;;;;;;5019386;28;20453;-76
2023/08/10 07:24:23;;;;;;;8.43;2.20;;;20.90;99.90;;;;;;5000837;28;20033;-76
2023/08/10 07:26:50;;;;;;;7.65;2.03;;;21.30;99.90;;;;;;5018028;28;20124;-76
2023/08/10 07:29:16;;;;;;;10.18;1.67;;;21.30;99.90;;;;;;5021847;28;20486;-76
2023/08/10 07:31:41;;;;;;;3.63;2.15;;;21.40;99.90;;;;;;5018786;28;20033;-76
2023/08/10 07:34:09;;;;;;;6.05;1.40;;;21.40;99.90;;;;;;4991019;28;21523;-77
2023/08/10 07:36:34;;;;;;;8.85;2.20;;;21.30;99.90;;;;;;5003069;28;20136;-76
2023/08/10 07:39:00;;;;;;;4.63;2.17;;;21.30;99.90;;;;;;5016728;28;20454;-77
2023/08/10 07:41:25;;;;;;;11.27;2.95;;;21.40;99.90;;;;;;5000921;28;20030;-76
2023/08/10 07:43:51;;;;;;;6.00;2.03;;;21.50;99.90;;;;;;5004107;28;20037;-77
2023/08/10 07:46:17;;;;;;;3.95;2.17;;;21.60;99.90;;;;;;5016667;28;20037;-76
2023/08/10 07:48:45;;;;;;;4.95;2.20;;;21.60;99.90;;;;;;4997395;28;20025;-77
2023/08/10 07:51:11;;;;;;;5.55;2.53;;;21.80;99.90;;;;;;5004482;28;20071;-77
2023/08/10 07:53:36;;;;;;;7.50;2.78;;;22.00;99.90;;;;;;5013518;28;20054;-77
2023/08/10 07:56:02;;;;;;;6.07;2.53;;;22.10;99.90;;;;;;4996951;28;20428;-76
2023/08/10 07:58:28;;;;;;;12.60;3.25;;;22.30;99.90;;;;;;5015216;28;20037;-76
2023/08/10 08:00:53;;;;;;;3.03;1.50;;;22.50;99.90;;;;;;5000109;28;20121;-77
2023/08/10 08:03:19;;;;;;;8.30;2.40;;;22.60;99.90;;;;;;5001675;28;20045;-77
2023/08/10 08:05:44;;;;;;;5.35;1.92;;;22.80;99.90;;;;;;5011855;28;20025;-76
2023/08/10 08:08:10;;;;;;;6.40;1.52;;;22.80;99.90;;;;;;5003318;28;20484;-76
2023/08/10 08:10:35;;;;;;;5.38;1.73;;;22.70;99.90;;;;;;4999761;28;20465;-77
2023/08/10 08:13:03;;;;;;;6.70;1.67;;;22.70;99.90;;;;;;4997665;28;20505;-76
2023/08/10 08:15:31;;;;;;;7.93;1.70;;;22.80;99.90;;;;;;5015898;28;20107;-78
2023/08/10 08:18:37;;;;;;;4.20;1.70;;;23.20;99.90;;;;;;4996407;28;20033;-77
2023/08/10 08:21:03;;;;;;;12.07;2.30;;;23.30;99.90;;;;;;5013080;28;20120;-76
2023/08/10 08:23:29;;;;;;;5.57;1.77;;;23.40;99.90;;;;;;5015890;28;20096;-77
2023/08/10 08:25:54;;;;;;;10.23;3.22;;;23.60;99.90;;;;;;5016563;28;20380;-78
2023/08/10 08:28:20;;;;;;;6.55;2.35;;;23.80;99.00;;;;;;4996098;28;20436;-77
2023/08/10 08:30:45;;;;;;;4.93;2.22;;;23.90;97.50;;;;;;5020041;28;20029;-76
2023/08/10 08:33:12;;;;;;;5.88;1.40;;;23.90;96.60;;;;;;5003093;28;20025;-77
2023/08/10 08:35:40;;;;;;;4.90;1.73;;;23.90;98.80;;;;;;5018491;28;20048;-77
2023/08/10 08:38:06;;;;;;;3.10;2.05;;;23.90;98.30;;;;;;5000134;28;20052;-77
2023/08/10 08:40:31;;;;;;;5.53;1.65;;;24.00;97.20;;;;;;5017600;28;20037;-77
2023/08/10 08:42:57;;;;;;;4.53;1.67;;;24.10;98.90;;;;;;4996308;28;20026;-77
2023/08/10 08:45:25;;;;;;;6.25;2.05;;;24.10;98.40;;;;;;5004379;28;20374;-78
2023/08/10 08:47:54;;;;;;;9.30;2.67;;;24.30;97.00;;;;;;5012602;28;20188;-77
2023/08/10 08:50:19;;;;;;;6.22;2.30;;;24.40;96.60;;;;;;5001560;28;20080;-78
2023/08/10 08:52:45;;;;;;;5.32;2.05;;;24.70;96.20;;;;;;5002789;28;20037;-77
2023/08/10 08:55:11;;;;;;;2.30;1.27;;;25.10;95.20;;;;;;4990225;28;20030;-77
2023/08/10 08:57:38;;;;;;;3.70;1.40;;;25.00;95.40;;;;;;5020069;28;20049;-77
2023/08/10 09:00:04;;;;;;;3.38;1.92;;;24.80;95.70;;;;;;5017000;28;20038;-77
2023/08/10 09:02:32;;;;;;;3.22;1.67;;;25.00;94.60;;;;;;5015074;28;20034;-77
2023/08/10 09:04:59;;;;;;;3.33;1.67;;;25.10;94.10;;;;;;5003934;28;20042;-77
2023/08/10 09:07:30;;;;;;;2.70;1.63;;;25.00;95.60;;;;;;5016337;28;20030;-77
2023/08/10 09:09:57;;;;;;;7.18;1.40;;;25.00;95.70;;;;;;5018218;28;20069;-77
2023/08/10 09:12:32;;;;;;;4.60;1.70;;;24.90;96.00;;;;;;5004825;28;20029;-76
2023/08/10 09:15:03;;;;;;;5.47;2.33;;;25.30;94.70;;;;;;4999161;28;20553;-77
2023/08/10 09:17:30;;;;;;;3.97;1.50;;;25.70;93.60;;;;;;5018636;28;20387;-77
2023/08/10 09:19:55;;;;;;;4.70;1.73;;;25.50;94.70;;;;;;5017443;28;20034;-77
2023/08/10 09:22:35;;;;;;;4.00;1.75;;;25.80;93.90;;;;;;5017580;28;20036;-78
2023/08/10 09:25:01;;;;;;;3.60;1.70;;;26.10;93.10;;;;;;5010476;28;20038;-78
2023/08/10 09:27:27;;;;;;;6.57;2.38;;;26.00;94.10;;;;;;5015737;28;20033;-79
2023/08/10 09:30:06;;;;;;;6.93;2.05;;;26.30;92.20;;;;;;5019747;28;20033;-79
2023/08/10 09:32:33;;;;;;;8.27;2.55;;;26.30;90.70;;;;;;5021128;28;20511;-78
2023/08/10 09:34:58;;;;;;;4.88;2.40;;;26.30;90.40;;;;;;5017969;28;20482;-78
2023/08/10 09:37:24;;;;;;;5.85;2.15;;;26.30;92.10;;;;;;5000250;28;20088;-78
2023/08/10 09:40:00;;;;;;;5.97;2.03;;;26.40;91.60;;;;;;4985996;28;20088;-79
2023/08/10 09:42:29;;;;;;;4.18;1.70;;;26.40;91.90;;;;;;5000713;28;20370;-79
2023/08/10 09:44:54;;;;;;;3.45;1.55;;;26.40;92.60;;;;;;5004160;28;20041;-79
2023/08/10 09:47:20;;;;;;;6.00;2.45;;;26.60;92.20;;;;;;5015765;28;20477;-78
2023/08/10 09:49:56;;;;;;;3.55;1.77;;;26.90;90.90;;;;;;5016452;28;20477;-79
2023/08/10 09:52:24;;;;;;;;;;;26.90;90.40;;;;;;5002906;28;20037;-79
2023/08/10 09:54:51;;;;;;;5.68;2.00;;;27.00;90.90;;;;;;5017857;28;19917;-79
2023/08/10 09:57:20;;;;;;;4.72;1.90;;;27.20;90.20;;;;;;4993637;28;20048;-79
2023/08/10 09:59:46;;;;;;;9.10;2.70;;;27.20;90.00;;;;;;5015069;28;20041;-79
2023/08/10 10:02:11;;;;;;;6.75;2.00;;;27.40;89.90;;;;;;5018399;28;20040;-79
2023/08/10 10:04:38;;;;;;;4.20;2.50;;;27.60;88.30;;;;;;5017501;28;20525;-79
2023/08/10 10:07:05;;;;;;;6.75;2.63;;;27.60;87.50;;;;;;5000225;28;20057;-80
2023/08/10 10:09:31;;;;;;;5.95;2.25;;;27.60;86.00;;;;;;4987470;28;20029;-80
2023/08/10 10:11:56;;;;;;;5.70;2.70;;;27.70;85.70;;;;;;5001859;28;20033;-80
2023/08/10 10:14:22;;;;;;;8.27;2.47;;;27.70;83.00;;;;;;5014969;28;20713;-80
2023/08/10 10:16:49;;;;;;;6.80;2.47;;;27.90;79.50;;;;;;4991236;28;20436;-79
2023/08/10 10:19:14;;;;;;;6.03;1.80;;;27.60;81.50;;;;;;5009351;28;20048;-79
2023/08/10 10:21:40;;;;;;;6.70;2.63;;;27.70;82.60;;;;;;5011275;28;20482;-79
2023/08/10 10:24:06;;;;;;;4.25;1.83;;;27.90;82.60;;;;;;5013479;28;20655;-79
2023/08/10 10:26:31;;;;;;;5.15;2.05;;;27.80;82.70;;;;;;4983472;28;20025;-79
2023/08/10 10:29:12;;;;;;;5.93;2.55;;;27.80;80.70;;;;;;4999081;28;20025;-79
2023/08/10 10:31:38;;;;;;;6.80;2.53;;;27.90;79.60;;;;;;4981663;28;20401;-80
2023/08/10 10:34:04;;;;;;;3.55;1.42;;;28.00;76.50;;;;;;4997562;28;20497;-79
2023/08/10 10:36:31;;;;;;;2.58;1.75;;;27.80;82.90;;;;;;5013925;28;20172;-79
2023/08/10 10:39:07;;;;;;;8.05;2.50;;;27.80;80.90;;;;;;4998651;28;20394;-79
2023/08/10 10:41:35;;;;;;;;;;;27.90;82.40;;;;;;5002177;28;20079;-79
2023/08/10 10:44:03;;;;;;;3.83;1.85;;;28.00;85.10;;;;;;5015258;28;19976;-79
2023/08/10 10:46:31;;;;;;;7.22;1.90;;;28.20;81.70;;;;;;4976849;28;20033;-79
2023/08/10 10:48:57;;;;;;;8.88;2.78;;;28.30;82.50;;;;;;5014653;28;20033;-79
2023/08/10 10:51:23;;;;;;;4.60;1.63;;;28.50;79.60;;;;;;5014510;28;20030;-80
2023/08/10 10:53:53;;;;;;;4.45;1.75;;;28.70;78.50;;;;;;4997199;28;20693;-79
2023/08/10 10:56:19;;;;;;;5.57;1.80;;;28.70;79.80;;;;;;5008198;28;20137;-80
2023/08/10 10:58:44;;;;;;;4.20;1.60;;;28.80;78.10;;;;;;4993675;28;20030;-80
2023/08/10 11:01:10;;;;;;;6.53;1.80;;;28.90;78.00;;;;;;4998103;28;20114;-80
2023/08/10 11:03:35;;;;;;;2.45;1.60;;;29.10;77.70;;;;;;4987051;28;20097;-79
2023/08/10 11:06:02;;;;;;;4.38;1.80;;;29.20;77.80;;;;;;4998322;28;20029;-79
2023/08/10 11:08:28;;;;;;;3.40;1.83;;;29.60;73.60;;;;;;5015572;28;20449;-79
2023/08/10 11:10:55;;;;;;;6.75;2.38;;;29.60;74.70;;;;;;5015517;28;20045;-79
2023/08/10 11:13:24;;;;;;;5.68;1.48;;;29.50;71.40;;;;;;4999007;28;20034;-80
2023/08/10 11:15:49;;;;;;;4.57;1.40;;;29.30;74.40;;;;;;5012807;28;20022;-79
2023/08/10 11:18:15;;;;;;;4.38;1.80;;;29.40;76.30;;;;;;5013141;28;20037;-78
2023/08/10 11:20:48;;;;;;;3.67;1.73;;;29.60;75.20;;;;;;5015659;28;20477;-78
2023/08/10 11:23:14;;;;;;;3.35;1.95;;;29.70;75.10;;;;;;4983345;28;20079;-78
2023/08/10 11:25:49;;;;;;;6.05;2.17;;;29.90;74.80;;;;;;5000026;28;20045;-78
2023/08/10 11:28:16;;;;;;;5.05;1.63;;;30.30;73.70;;;;;;4998642;28;20505;-77
2023/08/10 11:30:43;;;;;;;3.38;1.42;;;30.40;74.90;;;;;;5017013;28;20049;-78
2023/08/10 11:33:08;;;;;;;6.15;1.80;;;31.00;70.10;;;;;;4987573;28;20562;-80
2023/08/10 11:35:34;;;;;;;2.63;1.58;;;30.90;71.40;;;;;;5007373;28;20152;-79
2023/08/10 11:38:00;;;;;;;2.38;1.52;;;31.00;71.60;;;;;;4996240;28;20038;-77
2023/08/10 11:40:25;;;;;;;2.03;1.30;;;31.40;70.80;;;;;;4998349;28;20487;-80
2023/08/10 11:43:04;;;;;;;2.53;1.20;;;31.20;69.70;;;;;;5015846;28;20433;-80
2023/08/10 11:45:30;;;;;;;2.72;1.88;;;31.10;70.40;;;;;;5013705;28;20135;-79
2023/08/10 11:47:57;;;;;;;2.13;1.40;;;31.10;70.60;;;;;;5015321;28;20130;-79
2023/08/10 11:50:28;;;;;;;4.85;1.58;;;31.30;70.70;;;;;;5002534;28;20086;-79
2023/08/10 11:52:54;;;;;;;4.43;1.75;;;31.40;71.20;;;;;;5005526;28;20034;-78
2023/08/10 11:55:21;;;;;;;3.90;1.67;;;31.50;69.30;;;;;;5013729;28;20037;-78
2023/08/10 11:57:51;;;;;;;2.75;1.70;;;31.60;70.00;;;;;;5017377;28;20496;-78
2023/08/10 12:00:22;;;;;;;8.27;2.10;;;31.90;69.20;;;;;;4991276;28;20688;-78
2023/08/10 12:03:14;;;;;;;6.25;1.80;;;32.10;69.60;;;;;;5022797;28;20040;-79
2023/08/10 12:05:50;;;;;;;3.90;1.65;;;32.10;68.40;;;;;;5004385;28;20049;-79
2023/08/10 12:08:29;;;;;;;1.83;1.50;;;32.30;65.90;;;;;;4998142;28;20036;-80
2023/08/10 12:11:01;;;;;;;4.82;1.53;;;32.30;65.70;;;;;;4656756;28;10000334;-81
2023/08/10 12:13:27;;;;;;;3.00;1.80;;;32.30;65.40;;;;;;5013806;28;20038;-79
2023/08/10 12:15:53;;;;;;;4.78;1.70;;;32.20;65.40;;;;;;5008425;28;20921;-80
2023/08/10 12:18:20;;;;;;;4.47;1.80;;;32.00;65.30;;;;;;5000483;28;20505;-79
2023/08/10 12:20:46;;;;;;;3.03;1.77;;;32.00;63.80;;;;;;5000255;28;20091;-80
2023/08/10 12:23:12;;;;;;;1.80;1.27;;;31.70;62.50;;;;;;4998955;28;20385;-80
2023/08/10 12:25:38;;;;;;;2.20;1.65;;;31.60;63.60;;;;;;4988298;28;20038;-79
2023/08/10 12:28:05;;;;;;;3.28;1.90;;;31.50;62.60;;;;;;5010467;28;20271;-79
2023/08/10 12:30:30;;;;;;;2.60;1.55;;;31.50;64.40;;;;;;5015859;28;20033;-79
2023/08/10 12:32:56;;;;;;;5.72;2.13;;;31.50;66.10;;;;;;5014284;28;20037;-78
2023/08/10 12:35:22;;;;;;;4.38;2.20;;;31.90;65.00;;;;;;5011302;28;20088;-80
2023/08/10 12:37:50;;;;;;;6.25;2.22;;;31.90;64.20;;;;;;5002917;28;20029;-82
2023/08/10 12:40:16;;;;;;;3.97;2.00;;;32.10;63.10;;;;;;4988218;28;20030;-80
2023/08/10 12:42:44;;;;;;;5.22;2.05;;;32.10;63.30;;;;;;4999363;28;20040;-80
2023/08/10 12:45:10;;;;;;;6.03;2.40;;;32.20;63.80;;;;;;4986656;28;20034;-80